createdAt,value
2023-05-19T00:00:28.967Z,14.75
2023-05-19T00:03:22.078Z,14.77
2023-05-19T00:06:12.702Z,14.75
2023-05-19T00:09:07.168Z,14.73
2023-05-19T00:11:58.327Z,14.71
2023-05-19T00:14:52.077Z,14.69
2023-05-19T00:17:43.510Z,14.67
2023-05-19T00:20:34.532Z,14.63
2023-05-19T00:23:25.639Z,14.59
2023-05-19T00:26:16.363Z,14.57
2023-05-19T00:29:27.137Z,14.56
2023-05-19T00:32:19.964Z,14.54
2023-05-19T00:35:11.623Z,14.53
2023-05-19T00:38:02.293Z,14.56
2023-05-19T00:40:53.356Z,14.58
2023-05-19T00:43:47.256Z,14.57
2023-05-19T00:46:38.271Z,14.57
2023-05-19T00:49:29.193Z,14.59
2023-05-19T00:52:22.575Z,14.59
2023-05-19T00:55:14.233Z,14.57
2023-05-19T00:58:08.696Z,14.55
2023-05-19T01:01:12.523Z,14.53
2023-05-19T01:04:04.833Z,14.51
2023-05-19T01:07:03.870Z,14.46
2023-05-19T01:09:54.499Z,14.41
2023-05-19T01:12:58.532Z,14.35
2023-05-19T01:15:58.650Z,14.30
2023-05-19T01:18:58.202Z,14.20
2023-05-19T01:22:09.512Z,14.10
2023-05-19T01:25:29.962Z,14.03
2023-05-19T01:28:53.350Z,13.97
2023-05-19T01:31:47.387Z,13.97
2023-05-19T01:34:44.369Z,14.01
2023-05-19T01:37:35.774Z,14.04
2023-05-19T01:40:29.843Z,14.07
2023-05-19T01:43:21.809Z,14.09
2023-05-19T01:46:17.069Z,14.09
2023-05-19T01:49:07.877Z,14.00
2023-05-19T01:52:11.457Z,13.90
2023-05-19T01:55:12.871Z,13.82
2023-05-19T01:58:27.343Z,13.71
2023-05-19T02:01:33.688Z,13.62
2023-05-19T02:04:40.296Z,13.58
2023-05-19T02:07:36.931Z,13.53
2023-05-19T02:10:51.860Z,13.52
2023-05-19T02:13:57.873Z,13.49
2023-05-19T02:17:10.122Z,13.47
2023-05-19T02:20:22.393Z,13.45
2023-05-19T02:23:16.312Z,13.45
2023-05-19T02:26:27.349Z,13.45
2023-05-19T02:29:18.166Z,13.45
2023-05-19T02:32:28.975Z,13.44
2023-05-19T02:35:40.249Z,13.38
2023-05-19T02:38:31.200Z,13.28
2023-05-19T02:41:24.208Z,13.17
2023-05-19T02:44:26.092Z,13.12
2023-05-19T02:47:18.940Z,13.05
2023-05-19T02:50:30.321Z,12.97
2023-05-19T02:53:36.097Z,12.88
2023-05-19T02:56:28.383Z,12.82
2023-05-19T02:59:22.910Z,12.76
2023-05-19T03:02:24.289Z,12.66
2023-05-19T03:05:35.138Z,12.58
2023-05-19T03:08:46.291Z,12.55
2023-05-19T03:11:50.770Z,12.54
2023-05-19T03:15:02.171Z,12.51
2023-05-19T03:17:53.518Z,12.46
2023-05-19T03:20:58.392Z,12.42
2023-05-19T03:24:09.546Z,12.40
2023-05-19T03:27:20.331Z,12.40
2023-05-19T03:30:14.598Z,12.42
2023-05-19T03:33:30.160Z,12.44
2023-05-19T03:36:41.485Z,12.45
2023-05-19T03:39:35.912Z,12.45
2023-05-19T03:42:30.081Z,12.45
2023-05-19T03:45:33.667Z,12.44
2023-05-19T03:48:44.541Z,12.43
2023-05-19T03:52:07.582Z,12.41
2023-05-19T03:55:21.477Z,12.33
2023-05-19T03:58:32.300Z,12.27
2023-05-19T04:01:43.302Z,12.23
2023-05-19T04:04:39.574Z,12.20
2023-05-19T04:07:34.300Z,12.15
2023-05-19T04:10:44.919Z,12.08
2023-05-19T04:13:55.831Z,11.99
2023-05-19T04:17:06.849Z,11.92
2023-05-19T04:20:08.420Z,11.86
2023-05-19T04:23:02.248Z,11.80
2023-05-19T04:26:06.964Z,11.75
2023-05-19T04:29:08.845Z,11.67
2023-05-19T04:32:19.620Z,11.63
2023-05-19T04:35:24.005Z,11.59
2023-05-19T04:38:34.837Z,11.56
2023-05-19T04:41:46.127Z,11.53
2023-05-19T04:44:49.429Z,11.51
2023-05-19T04:47:50.522Z,11.53
2023-05-19T04:51:02.803Z,11.53
2023-05-19T04:53:58.788Z,11.55
2023-05-19T04:57:10.742Z,11.58
2023-05-19T05:00:09.231Z,11.64
2023-05-19T05:03:10.511Z,11.68
2023-05-19T05:06:04.716Z,11.73
2023-05-19T05:09:15.621Z,11.78
2023-05-19T05:12:19.330Z,11.79
2023-05-19T05:15:30.694Z,11.79
2023-05-19T05:18:48.779Z,11.80
2023-05-19T05:21:43.860Z,11.82
2023-05-19T05:24:55.260Z,11.81
2023-05-19T05:27:59.302Z,11.79
2023-05-19T05:31:00.092Z,11.77
2023-05-19T05:34:10.981Z,11.81
2023-05-19T05:37:24.339Z,11.83
2023-05-19T05:40:26.228Z,11.86
2023-05-19T05:43:39.738Z,11.93
2023-05-19T05:46:50.921Z,11.99
2023-05-19T05:50:07.984Z,12.04
2023-05-19T05:53:11.070Z,12.05
2023-05-19T05:56:13.292Z,12.08
2023-05-19T05:59:11.642Z,12.16
2023-05-19T06:02:08.735Z,12.22
2023-05-19T06:05:02.705Z,12.31
2023-05-19T06:07:57.076Z,12.37
2023-05-19T06:11:06.865Z,12.46
2023-05-19T06:14:04.433Z,12.59
2023-05-19T06:17:30.731Z,12.74
2023-05-19T06:20:25.592Z,12.80
2023-05-19T06:23:19.773Z,12.85
2023-05-19T06:26:13.269Z,12.93
2023-05-19T06:29:08.508Z,12.97
2023-05-19T06:32:19.206Z,13.00
2023-05-19T06:35:16.343Z,13.09
2023-05-19T06:38:10.594Z,13.14
2023-05-19T06:41:07.072Z,13.14
2023-05-19T06:43:58.092Z,13.13
2023-05-19T06:46:54.500Z,13.12
2023-05-19T06:49:45.582Z,13.15
2023-05-19T06:52:37.556Z,13.19
2023-05-19T06:55:30.977Z,13.22
2023-05-19T06:58:21.735Z,13.28
2023-05-19T07:01:12.725Z,13.36
2023-05-19T07:04:10.843Z,13.44
2023-05-19T07:07:02.066Z,13.55
2023-05-19T07:09:55.808Z,13.63
2023-05-19T07:13:06.619Z,13.70
2023-05-19T07:15:57.563Z,13.77
2023-05-19T07:19:08.518Z,13.89
2023-05-19T07:22:01.952Z,14.02
2023-05-19T07:25:04.926Z,14.05
2023-05-19T07:28:05.042Z,14.09
2023-05-19T07:30:55.715Z,14.09
2023-05-19T07:33:46.379Z,14.12
2023-05-19T07:36:57.193Z,14.10
2023-05-19T07:39:52.906Z,14.07
2023-05-19T07:42:56.603Z,14.08
2023-05-19T07:46:07.710Z,14.12
2023-05-19T07:49:01.703Z,14.17
2023-05-19T07:51:55.118Z,14.19
2023-05-19T07:55:06.592Z,14.22
2023-05-19T07:58:00.123Z,14.28
2023-05-19T08:01:02.128Z,14.47
2023-05-19T08:03:52.901Z,14.63
2023-05-19T08:06:56.234Z,14.83
2023-05-19T08:09:46.961Z,15.05
2023-05-19T08:12:57.804Z,15.29
2023-05-19T08:15:48.621Z,15.49
2023-05-19T08:18:42.594Z,15.59
2023-05-19T08:21:34.697Z,15.73
2023-05-19T08:24:45.970Z,15.79
2023-05-19T08:27:56.741Z,15.80
2023-05-19T08:30:49.438Z,15.78
2023-05-19T08:34:00.303Z,15.76
2023-05-19T08:37:12.152Z,15.72
2023-05-19T08:40:05.013Z,15.69
2023-05-19T08:43:07.517Z,15.65
2023-05-19T08:46:01.354Z,15.64
2023-05-19T08:48:55.580Z,15.68
2023-05-19T08:51:51.922Z,15.63
2023-05-19T08:54:45.185Z,15.57
2023-05-19T08:57:36.006Z,15.48
2023-05-19T09:00:31.632Z,15.42
2023-05-19T09:03:23.855Z,15.39
2023-05-19T09:06:22.438Z,15.43
2023-05-19T09:09:32.477Z,15.52
2023-05-19T09:12:23.128Z,15.64
2023-05-19T09:15:14.007Z,15.76
2023-05-19T09:18:11.575Z,15.85
2023-05-19T09:21:04.947Z,15.90
2023-05-19T09:23:59.220Z,15.88
2023-05-19T09:26:52.180Z,15.93
2023-05-19T09:29:42.963Z,16.05
2023-05-19T09:32:33.624Z,16.10
2023-05-19T09:35:24.366Z,16.18
2023-05-19T09:38:18.553Z,16.19
2023-05-19T09:41:16.188Z,16.25
2023-05-19T09:44:22.996Z,16.29
2023-05-19T09:47:13.637Z,16.36
2023-05-19T09:50:04.775Z,16.50
2023-05-19T09:52:55.591Z,16.68
2023-05-19T09:55:46.974Z,16.86
2023-05-19T09:58:39.275Z,16.99
2023-05-19T10:01:30.534Z,17.11
2023-05-19T10:04:22.487Z,17.26
2023-05-19T10:07:14.562Z,17.34
2023-05-19T10:10:07.334Z,17.42
2023-05-19T10:12:58.055Z,17.54
2023-05-19T10:18:45.990Z,17.81
2023-05-19T10:21:36.626Z,17.91
2023-05-19T10:24:27.748Z,17.97
2023-05-19T10:27:19.241Z,18.14
2023-05-19T10:30:15.671Z,18.47
2023-05-19T10:33:09.762Z,18.72
2023-05-19T10:36:11.604Z,18.92
2023-05-19T10:39:06.448Z,19.05
2023-05-19T10:42:05.538Z,19.04
2023-05-19T10:45:11.565Z,19.01
2023-05-19T10:48:02.262Z,18.91
2023-05-19T10:50:55.526Z,18.79
2023-05-19T10:53:47.246Z,18.72
2023-05-19T10:56:42.644Z,18.73
2023-05-19T10:59:33.856Z,18.72
2023-05-19T11:02:47.731Z,18.67
2023-05-19T11:05:38.612Z,18.69
2023-05-19T11:08:34.988Z,18.75
2023-05-19T11:11:26.527Z,18.79
2023-05-19T11:14:18.816Z,18.81
2023-05-19T11:17:14.332Z,18.88
2023-05-19T11:20:06.873Z,18.97
2023-05-19T11:23:10.520Z,19.00
2023-05-19T11:26:03.483Z,19.10
2023-05-19T11:28:54.350Z,19.22
2023-05-19T11:31:45.069Z,19.17
2023-05-19T11:34:38.861Z,18.96
2023-05-19T11:37:33.452Z,18.70
2023-05-19T11:40:24.592Z,18.48
2023-05-19T11:43:15.126Z,18.38
2023-05-19T11:46:05.822Z,18.31
2023-05-19T11:48:56.708Z,18.25
2023-05-19T11:51:47.387Z,18.22
2023-05-19T11:54:39.437Z,18.20
2023-05-19T11:57:30.059Z,18.17
2023-05-19T12:00:23.639Z,18.05
2023-05-19T12:03:14.800Z,18.05
2023-05-19T12:06:08.411Z,18.16
2023-05-19T12:09:00.197Z,18.40
2023-05-19T12:11:50.931Z,18.60
2023-05-19T12:14:41.611Z,18.70
2023-05-19T12:17:33.766Z,18.76
2023-05-19T12:20:24.745Z,18.86
2023-05-19T12:23:15.334Z,19.13
2023-05-19T12:26:06.350Z,19.51
2023-05-19T12:28:59.659Z,19.99
2023-05-19T12:31:50.874Z,20.55
2023-05-19T12:34:42.151Z,20.97
2023-05-19T12:37:33.484Z,21.21
2023-05-19T12:40:23.881Z,21.45
2023-05-19T12:43:22.239Z,21.63
2023-05-19T12:46:13.023Z,21.49
2023-05-19T12:49:03.560Z,21.45
2023-05-19T12:51:54.926Z,21.56
2023-05-19T12:54:45.509Z,21.64
2023-05-19T12:57:37.016Z,21.58
2023-05-19T13:00:29.264Z,21.92
2023-05-19T13:03:20.558Z,22.34
2023-05-19T13:06:11.920Z,22.75
2023-05-19T13:09:02.804Z,23.16
2023-05-19T13:11:54.234Z,23.38
2023-05-19T13:14:44.878Z,23.34
2023-05-19T13:17:36.969Z,23.04
2023-05-19T13:20:28.649Z,22.70
2023-05-19T13:23:19.490Z,22.30
2023-05-19T13:26:11.701Z,22.44
2023-05-19T13:29:02.357Z,23.28
2023-05-19T13:31:53.069Z,23.99
2023-05-19T13:34:43.672Z,24.77
2023-05-19T13:37:34.266Z,25.62
2023-05-19T13:40:26.196Z,26.28
2023-05-19T13:43:17.393Z,26.96
2023-05-19T13:46:08.415Z,27.00
2023-05-19T13:48:59.079Z,26.90
2023-05-19T13:51:50.088Z,26.72
2023-05-19T13:54:40.862Z,26.43
2023-05-19T13:57:31.629Z,26.04
2023-05-19T14:00:22.615Z,25.63
2023-05-19T14:03:13.613Z,25.22
2023-05-19T14:06:04.440Z,24.81
2023-05-19T14:08:55.220Z,24.28
2023-05-19T14:11:45.940Z,23.86
2023-05-19T14:14:36.871Z,23.43
2023-05-19T14:17:28.538Z,23.23
2023-05-19T14:20:19.222Z,23.30
2023-05-19T14:23:09.795Z,23.22
2023-05-19T14:26:00.389Z,23.24
2023-05-19T14:28:51.469Z,23.45
2023-05-19T14:31:42.067Z,23.83
2023-05-19T14:34:32.790Z,24.04
2023-05-19T14:37:24.338Z,24.39
2023-05-19T14:40:15.371Z,24.88
2023-05-19T14:43:06.063Z,24.93
2023-05-19T14:45:56.598Z,24.54
2023-05-19T14:48:47.633Z,24.11
2023-05-19T14:51:38.154Z,23.87
2023-05-19T14:54:28.858Z,23.84
2023-05-19T14:57:19.596Z,23.83
2023-05-19T15:00:11.725Z,23.70
2023-05-19T15:03:02.450Z,23.49
2023-05-19T15:05:52.991Z,23.34
2023-05-19T15:08:43.620Z,23.07
2023-05-19T15:11:34.275Z,22.83
2023-05-19T15:14:26.203Z,22.74
2023-05-19T15:17:18.765Z,22.56
2023-05-19T15:20:10.503Z,22.38
2023-05-19T15:23:01.009Z,22.30
2023-05-19T15:25:51.566Z,22.18
2023-05-19T15:28:42.309Z,22.12
2023-05-19T15:31:33.684Z,22.04
2023-05-19T15:34:25.842Z,21.91
2023-05-19T15:37:16.707Z,21.87
2023-05-19T15:40:10.496Z,21.91
2023-05-19T15:43:01.094Z,21.86
2023-05-19T15:45:55.133Z,21.76
2023-05-19T15:48:45.716Z,21.70
2023-05-19T15:51:36.587Z,21.69
2023-05-19T15:54:27.105Z,21.72
2023-05-19T15:57:17.669Z,21.75
2023-05-19T16:00:11.678Z,21.73
2023-05-19T16:03:02.447Z,21.62
2023-05-19T16:05:54.471Z,21.53
2023-05-19T16:08:45.031Z,21.40
2023-05-19T16:11:35.751Z,21.19
2023-05-19T16:14:29.333Z,21.06
2023-05-19T16:17:19.802Z,20.98
2023-05-19T16:20:11.604Z,20.85
2023-05-19T16:23:02.104Z,20.76
2023-05-19T16:25:52.696Z,20.71
2023-05-19T16:28:43.794Z,20.75
2023-05-19T16:31:35.283Z,20.70
2023-05-19T16:34:27.491Z,20.56
2023-05-19T16:37:22.113Z,20.43
2023-05-19T16:40:13.205Z,20.31
2023-05-19T16:43:03.772Z,20.30
2023-05-19T16:45:54.908Z,20.28
2023-05-19T16:48:45.519Z,20.23
2023-05-19T16:51:36.759Z,20.08
2023-05-19T16:54:27.295Z,20.01
2023-05-19T16:57:17.967Z,19.97
2023-05-19T17:00:10.467Z,19.93
2023-05-19T17:03:01.325Z,19.87
2023-05-19T17:05:52.598Z,19.83
2023-05-19T17:08:43.244Z,19.78
2023-05-19T17:11:33.870Z,19.74
2023-05-19T17:14:24.554Z,19.70
2023-05-19T17:17:15.308Z,19.70
2023-05-19T17:20:06.781Z,19.72
2023-05-19T17:22:58.075Z,19.69
2023-05-19T17:25:48.811Z,19.59
2023-05-19T17:28:39.454Z,19.54
2023-05-19T17:31:30.107Z,19.50
2023-05-19T17:34:21.039Z,19.41
2023-05-19T17:37:12.129Z,19.27
2023-05-19T17:40:05.448Z,19.10
2023-05-19T17:42:58.982Z,18.75
2023-05-19T17:45:49.972Z,18.43
2023-05-19T17:48:42.970Z,18.15
2023-05-19T17:51:33.891Z,17.95
2023-05-19T17:54:27.570Z,17.73
2023-05-19T17:57:19.421Z,17.57
2023-05-19T18:00:11.482Z,17.46
2023-05-19T18:03:04.751Z,17.32
2023-05-19T18:05:56.207Z,17.19
2023-05-19T18:08:50.739Z,17.13
2023-05-19T18:11:41.690Z,17.10
2023-05-19T18:14:34.500Z,17.07
2023-05-19T18:17:25.161Z,17.02
2023-05-19T18:20:16.060Z,16.98
2023-05-19T18:23:06.718Z,16.96
2023-05-19T18:25:57.385Z,16.95
2023-05-19T18:28:47.774Z,16.92
2023-05-19T18:31:38.433Z,16.89
2023-05-19T18:34:29.740Z,16.89
2023-05-19T18:37:20.794Z,16.90
2023-05-19T18:40:12.027Z,16.88
2023-05-19T18:43:05.801Z,16.84
2023-05-19T18:45:59.274Z,16.78
2023-05-19T18:48:52.276Z,16.73
2023-05-19T18:51:48.653Z,16.68
2023-05-19T18:54:42.464Z,16.66
2023-05-19T18:57:35.771Z,16.65
2023-05-19T19:00:28.252Z,16.64
2023-05-19T19:03:19.092Z,16.64
2023-05-19T19:06:09.659Z,16.62
2023-05-19T19:09:02.504Z,16.62
2023-05-19T19:11:53.148Z,16.62
2023-05-19T19:14:43.794Z,16.64
2023-05-19T19:17:54.512Z,16.66
2023-05-19T19:20:48.037Z,16.68
2023-05-19T19:23:39.212Z,16.71
2023-05-19T19:26:32.155Z,16.74
2023-05-19T19:29:33.833Z,16.76
2023-05-19T19:32:24.471Z,16.79
2023-05-19T19:35:16.210Z,16.80
2023-05-19T19:38:07.182Z,16.81
2023-05-19T19:40:58.377Z,16.80
2023-05-19T19:43:48.978Z,16.78
2023-05-19T19:46:39.567Z,16.75
2023-05-19T19:49:30.394Z,16.72
2023-05-19T19:52:21.039Z,16.69
2023-05-19T19:55:12.295Z,16.66
2023-05-19T19:58:06.231Z,16.63
2023-05-19T20:01:00.574Z,16.59
2023-05-19T20:03:51.429Z,16.55
2023-05-19T20:06:42.051Z,16.52
2023-05-19T20:09:32.618Z,16.47
2023-05-19T20:12:23.307Z,16.44
2023-05-19T20:15:14.018Z,16.40
2023-05-19T20:18:04.732Z,16.34
2023-05-19T20:20:57.705Z,16.28
2023-05-19T20:23:50.475Z,16.22
2023-05-19T20:26:41.371Z,16.17
2023-05-19T20:29:31.568Z,16.13
2023-05-19T20:32:22.228Z,16.10
2023-05-19T20:35:12.891Z,16.08
2023-05-19T20:38:03.482Z,16.08
2023-05-19T20:40:55.083Z,16.07
2023-05-19T20:43:48.074Z,16.05
2023-05-19T20:46:38.660Z,16.03
2023-05-19T20:49:29.195Z,15.98
2023-05-19T20:52:19.910Z,15.95
2023-05-19T20:55:10.823Z,15.93
2023-05-19T20:58:01.432Z,15.92
2023-05-19T21:00:57.964Z,15.93
2023-05-19T21:03:48.751Z,15.94
2023-05-19T21:06:39.308Z,15.94
2023-05-19T21:09:29.935Z,15.92
2023-05-19T21:12:24.003Z,15.91
2023-05-19T21:15:14.893Z,15.88
2023-05-19T21:18:05.873Z,15.85
2023-05-19T21:21:06.074Z,15.85
2023-05-19T21:23:56.942Z,15.84
2023-05-19T21:26:49.432Z,15.83
2023-05-19T21:29:39.829Z,15.82
2023-05-19T21:32:30.460Z,15.81
2023-05-19T21:35:21.167Z,15.81
2023-05-19T21:38:22.540Z,15.82
2023-05-19T21:41:14.702Z,15.83
2023-05-19T21:44:06.156Z,15.81
2023-05-19T21:46:56.628Z,15.78
2023-05-19T21:49:57.669Z,15.72
2023-05-19T21:52:48.753Z,15.62
2023-05-19T21:55:39.749Z,15.51
2023-05-19T21:58:32.575Z,15.42
2023-05-19T22:01:23.582Z,15.33
2023-05-19T22:04:16.426Z,15.25
2023-05-19T22:07:08.248Z,15.17
2023-05-19T22:10:01.742Z,15.11
2023-05-19T22:12:52.368Z,15.09
2023-05-19T22:15:46.721Z,15.07
2023-05-19T22:18:37.185Z,15.03
2023-05-19T22:21:30.438Z,15.01
2023-05-19T22:24:20.985Z,14.97
2023-05-19T22:27:11.772Z,14.96
2023-05-19T22:30:06.014Z,14.95
2023-05-19T22:33:00.287Z,14.95
2023-05-19T22:36:11.521Z,14.92
2023-05-19T22:39:02.345Z,14.86
2023-05-19T22:41:53.192Z,14.80
2023-05-19T22:45:06.011Z,14.77
2023-05-19T22:47:59.767Z,14.72
2023-05-19T22:50:53.227Z,14.67
2023-05-19T22:53:46.850Z,14.62
2023-05-19T22:56:46.390Z,14.56
2023-05-19T22:59:38.567Z,14.53
2023-05-19T23:02:31.876Z,14.50
2023-05-19T23:05:22.578Z,14.49
2023-05-19T23:08:13.308Z,14.45
2023-05-19T23:11:09.698Z,14.41
2023-05-19T23:14:03.062Z,14.39
2023-05-19T23:16:59.555Z,14.37
2023-05-19T23:19:57.772Z,14.33
2023-05-19T23:22:50.733Z,14.30
2023-05-19T23:25:56.726Z,14.29
2023-05-19T23:29:00.164Z,14.27
2023-05-19T23:31:58.440Z,14.28
2023-05-19T23:35:15.799Z,14.28
2023-05-19T23:38:10.066Z,14.25
2023-05-19T23:41:26.518Z,14.24
2023-05-19T23:44:31.941Z,14.22
2023-05-19T23:47:26.451Z,14.22
2023-05-19T23:50:29.500Z,14.23
2023-05-19T23:53:29.393Z,14.26
2023-05-19T23:56:31.207Z,14.26
2023-05-19T23:59:42.597Z,14.26
